Time;durP1;ratioP1;P1;durP2;ratioP2;P2;SDS_P1;SDS_P2;PMS_P1;PMS_P2;Temp;Humidity;BMP_temperature;BMP_pressure;BME280_temperature;BME280_humidity;BME280_pressure;Samples;Min_cycle;Max_cycle;Signal;HPM_P1;HPM_P2
2022/07/17 00:00:04;;;;;;;7.30;2.53;;;;;;;;;;6248750;28;20232;-67
2022/07/17 00:03:24;;;;;;;2.97;1.83;;;;;;;;;;6246360;28;20247;-68
2022/07/17 00:06:46;;;;;;;7.13;2.17;;;;;;;;;;6238474;28;20232;-67
2022/07/17 00:10:07;;;;;;;7.00;2.60;;;;;;;;;;6239014;28;20224;-67
2022/07/17 00:13:28;;;;;;;6.70;2.33;;;;;;;;;;6243048;28;20223;-67
2022/07/17 00:16:49;;;;;;;7.17;2.90;;;;;;;;;;6241685;28;20623;-67
2022/07/17 00:20:10;;;;;;;7.00;3.43;;;;;;;;;;6245431;28;20339;-68
2022/07/17 00:23:32;;;;;;;8.87;2.87;;;;;;;;;;6238131;28;20562;-67
2022/07/17 00:26:53;;;;;;;7.90;3.33;;;;;;;;;;6247547;28;20231;-68
2022/07/17 00:30:13;;;;;;;6.57;2.80;;;;;;;;;;6242172;28;20612;-67
2022/07/17 00:33:34;;;;;;;8.30;2.93;;;;;;;;;;6245241;28;20235;-66
2022/07/17 00:36:54;;;;;;;9.10;2.87;;;;;;;;;;6237549;28;20656;-67
2022/07/17 00:40:18;;;;;;;7.73;2.47;;;;;;;;;;6244777;28;20228;-67
2022/07/17 00:43:39;;;;;;;8.33;3.33;;;;;;;;;;6241007;28;20231;-67
2022/07/17 00:46:59;;;;;;;12.47;3.37;;;;;;;;;;6241736;28;20251;-67
2022/07/17 00:50:20;;;;;;;11.60;2.90;;;;;;;;;;6244106;28;20232;-68
2022/07/17 00:53:42;;;;;;;4.70;2.53;;;;;;;;;;6230566;28;20231;-67
2022/07/17 00:57:06;;;;;;;7.60;2.50;;;;;;;;;;6246013;28;20238;-68
2022/07/17 01:00:27;;;;;;;3.97;2.77;;;;;;;;;;6243326;28;20227;-67
2022/07/17 01:03:47;;;;;;;4.40;2.63;;;;;;;;;;6233226;28;20251;-67
2022/07/17 01:07:08;;;;;;;7.97;2.30;;;;;;;;;;6242332;28;20219;-67
2022/07/17 01:10:28;;;;;;;7.03;2.50;;;;;;;;;;6248387;28;20223;-67
2022/07/17 01:13:50;;;;;;;8.77;2.20;;;;;;;;;;6240228;28;20785;-68
2022/07/17 01:17:11;;;;;;;8.47;2.80;;;;;;;;;;6240147;28;20243;-67
2022/07/17 01:20:33;;;;;;;6.07;2.00;;;;;;;;;;6244325;28;20228;-67
2022/07/17 01:23:55;;;;;;;4.10;2.40;;;;;;;;;;6238879;28;20244;-67
2022/07/17 01:27:16;;;;;;;5.10;3.00;;;;;;;;;;6223536;28;20224;-67
2022/07/17 01:30:36;;;;;;;5.43;3.23;;;;;;;;;;6244810;28;20243;-67
2022/07/17 01:33:57;;;;;;;9.23;2.57;;;;;;;;;;6248700;28;20287;-68
2022/07/17 01:37:18;;;;;;;5.77;3.13;;;;;;;;;;6242062;28;20235;-67
2022/07/17 01:40:40;;;;;;;8.10;2.83;;;;;;;;;;6246327;28;20227;-67
2022/07/17 01:44:00;;;;;;;4.60;2.40;;;;;;;;;;6207277;28;20712;-67
2022/07/17 01:47:21;;;;;;;5.53;2.53;;;;;;;;;;6234515;28;20539;-68
2022/07/17 01:50:42;;;;;;;7.57;2.57;;;;;;;;;;6246744;28;21500;-67
2022/07/17 01:54:03;;;;;;;4.70;2.33;;;;;;;;;;6222593;28;20596;-67
2022/07/17 01:57:24;;;;;;;6.07;2.37;;;;;;;;;;6246192;28;20231;-67
2022/07/17 02:00:45;;;;;;;9.37;2.23;;;;;;;;;;6226841;28;20260;-67
2022/07/17 02:04:06;;;;;;;5.27;2.60;;;;;;;;;;6222740;28;20231;-67
2022/07/17 02:07:26;;;;;;;3.63;1.97;;;;;;;;;;6245726;28;20228;-67
2022/07/17 02:10:47;;;;;;;9.10;2.63;;;;;;;;;;6228349;28;20235;-67
2022/07/17 02:14:09;;;;;;;7.23;2.53;;;;;;;;;;6220094;28;20232;-69
2022/07/17 02:17:29;;;;;;;6.37;2.10;;;;;;;;;;6239526;28;20547;-68
2022/07/17 02:20:50;;;;;;;5.30;2.40;;;;;;;;;;6251604;28;20611;-68
2022/07/17 02:24:11;;;;;;;4.73;2.27;;;;;;;;;;6221181;28;20514;-68
2022/07/17 02:27:31;;;;;;;5.70;2.23;;;;;;;;;;6243389;28;20605;-67
2022/07/17 02:30:53;;;;;;;6.27;2.43;;;;;;;;;;6236017;28;20231;-67
2022/07/17 02:34:14;;;;;;;3.93;2.00;;;;;;;;;;6223718;28;20252;-68
2022/07/17 02:37:34;;;;;;;4.97;2.47;;;;;;;;;;6243963;28;20227;-67
2022/07/17 02:40:55;;;;;;;8.50;2.80;;;;;;;;;;6240364;28;20413;-68
2022/07/17 02:44:16;;;;;;;7.27;2.23;;;;;;;;;;6240279;28;20818;-68
2022/07/17 02:47:38;;;;;;;7.43;2.50;;;;;;;;;;6231047;28;20529;-68
2022/07/17 02:50:58;;;;;;;5.27;2.20;;;;;;;;;;6235578;28;20220;-66
2022/07/17 02:54:19;;;;;;;7.63;2.37;;;;;;;;;;6244311;28;20232;-67
2022/07/17 02:57:40;;;;;;;5.43;2.93;;;;;;;;;;6242657;28;20232;-67
2022/07/17 03:01:00;;;;;;;7.27;2.43;;;;;;;;;;6220001;28;20347;-67
2022/07/17 03:04:22;;;;;;;8.13;2.23;;;;;;;;;;6225753;28;20261;-67
2022/07/17 03:07:43;;;;;;;6.80;2.90;;;;;;;;;;6241273;28;20310;-67
2022/07/17 03:11:04;;;;;;;7.17;2.00;;;;;;;;;;6222857;28;20228;-67
2022/07/17 03:14:24;;;;;;;5.03;2.37;;;;;;;;;;6228134;28;20248;-67
2022/07/17 03:17:45;;;;;;;5.40;2.20;;;;;;;;;;6248524;28;20224;-68
2022/07/17 03:21:07;;;;;;;5.77;2.23;;;;;;;;;;6216140;28;20322;-67
2022/07/17 03:24:28;;;;;;;7.10;2.77;;;;;;;;;;6213365;28;20614;-67
2022/07/17 03:27:48;;;;;;;7.33;2.00;;;;;;;;;;6240967;28;20501;-67
2022/07/17 03:31:09;;;;;;;3.63;1.87;;;;;;;;;;6215916;28;20676;-67
2022/07/17 03:34:29;;;;;;;3.47;1.90;;;;;;;;;;6225929;28;20251;-68
2022/07/17 03:37:51;;;;;;;5.17;2.80;;;;;;;;;;6244538;28;20240;-67
2022/07/17 03:41:12;;;;;;;7.27;2.33;;;;;;;;;;6219676;28;20635;-68
2022/07/17 03:44:33;;;;;;;5.03;2.27;;;;;;;;;;6242816;28;20550;-68
2022/07/17 03:47:53;;;;;;;4.30;1.87;;;;;;;;;;6243455;28;20613;-67
2022/07/17 03:51:13;;;;;;;4.73;2.40;;;;;;;;;;6214240;28;20219;-68
2022/07/17 03:54:35;;;;;;;4.27;2.03;;;;;;;;;;6217515;28;21165;-68
2022/07/17 03:57:56;;;;;;;4.30;2.57;;;;;;;;;;6237119;28;20236;-67
2022/07/17 04:01:16;;;;;;;5.07;2.10;;;;;;;;;;6237302;28;20321;-67
2022/07/17 04:04:37;;;;;;;7.37;3.33;;;;;;;;;;6245618;28;20228;-67
2022/07/17 04:07:58;;;;;;;8.07;3.37;;;;;;;;;;6243318;28;20418;-67
2022/07/17 04:11:20;;;;;;;7.90;2.87;;;;;;;;;;6247459;28;20256;-67
2022/07/17 04:14:40;;;;;;;6.00;2.50;;;;;;;;;;6224093;28;20239;-68
2022/07/17 04:18:01;;;;;;;5.53;2.00;;;;;;;;;;6241582;28;20239;-67
2022/07/17 04:21:22;;;;;;;5.77;1.87;;;;;;;;;;6243178;28;20552;-67
2022/07/17 04:24:43;;;;;;;6.47;3.13;;;;;;;;;;6240461;28;20227;-67
2022/07/17 04:28:05;;;;;;;6.27;2.53;;;;;;;;;;6245729;28;20223;-67
2022/07/17 04:31:26;;;;;;;5.83;2.90;;;;;;;;;;6238854;28;20536;-67
2022/07/17 04:34:46;;;;;;;4.00;1.90;;;;;;;;;;6234704;28;21146;-67
2022/07/17 04:38:08;;;;;;;4.87;2.30;;;;;;;;;;6241612;28;20231;-67
2022/07/17 04:41:28;;;;;;;7.57;2.47;;;;;;;;;;6241875;28;21024;-67
2022/07/17 04:44:50;;;;;;;4.03;2.10;;;;;;;;;;6246874;28;20310;-67
2022/07/17 04:48:10;;;;;;;6.57;2.37;;;;;;;;;;6242789;28;20668;-66
2022/07/17 04:51:31;;;;;;;7.53;2.60;;;;;;;;;;6242388;28;20628;-67
2022/07/17 04:54:51;;;;;;;5.83;1.80;;;;;;;;;;6246000;28;20550;-67
2022/07/17 04:58:12;;;;;;;5.23;1.90;;;;;;;;;;6223618;28;20223;-67
2022/07/17 05:01:34;;;;;;;3.93;2.63;;;;;;;;;;6237891;28;20330;-68
2022/07/17 05:04:55;;;;;;;5.37;2.40;;;;;;;;;;6238061;28;21971;-67
2022/07/17 05:08:16;;;;;;;6.13;2.07;;;;;;;;;;6247927;28;20316;-68
2022/07/17 05:11:37;;;;;;;3.80;2.40;;;;;;;;;;6229072;28;20231;-68
2022/07/17 05:14:58;;;;;;;3.60;2.43;;;;;;;;;;6244304;28;20251;-67
2022/07/17 05:18:20;;;;;;;6.70;1.97;;;;;;;;;;6248913;28;20224;-67
2022/07/17 05:21:40;;;;;;;5.33;2.23;;;;;;;;;;6244674;28;20223;-67
2022/07/17 05:25:01;;;;;;;5.37;2.83;;;;;;;;;;6245694;28;20239;-67
2022/07/17 05:28:21;;;;;;;3.20;2.03;;;;;;;;;;6247235;28;20227;-67
2022/07/17 05:31:42;;;;;;;7.00;2.03;;;;;;;;;;6245854;28;20228;-67
2022/07/17 05:35:04;;;;;;;6.43;2.33;;;;;;;;;;6241114;28;20235;-68
2022/07/17 05:38:25;;;;;;;3.77;2.33;;;;;;;;;;6245455;28;20244;-67
2022/07/17 05:41:46;;;;;;;3.75;2.15;;;;;;;;;;6245215;28;20643;-67
2022/07/17 05:45:07;;;;;;;3.37;2.53;;;;;;;;;;6247175;28;20228;-67
2022/07/17 05:48:30;;;;;;;5.67;1.87;;;;;;;;;;6245908;28;20231;-67
2022/07/17 05:51:52;;;;;;;4.23;2.00;;;;;;;;;;6246311;28;20263;-68
2022/07/17 05:55:13;;;;;;;3.70;2.10;;;;;;;;;;6249359;28;20227;-67
2022/07/17 05:58:33;;;;;;;5.73;2.40;;;;;;;;;;6248995;28;20239;-67
2022/07/17 06:01:54;;;;;;;3.97;2.00;;;;;;;;;;6240275;28;20317;-68
2022/07/17 06:05:15;;;;;;;6.38;2.00;;;;;;;;;;6243979;28;20232;-68
2022/07/17 06:08:37;;;;;;;5.77;2.00;;;;;;;;;;6244056;28;20228;-67
2022/07/17 06:11:57;;;;;;;4.43;1.90;;;;;;;;;;6234048;28;21421;-69
2022/07/17 06:15:18;;;;;;;2.83;1.77;;;;;;;;;;6244388;28;20228;-67
2022/07/17 06:18:38;;;;;;;3.47;1.43;;;;;;;;;;6243297;28;20227;-66
2022/07/17 06:21:59;;;;;;;6.60;3.70;;;;;;;;;;6232701;28;20232;-67
2022/07/17 06:25:21;;;;;;;2.70;1.47;;;;;;;;;;6246739;28;20236;-69
2022/07/17 06:28:41;;;;;;;6.95;2.25;;;;;;;;;;6237136;28;20236;-67
2022/07/17 06:32:02;;;;;;;4.27;1.70;;;;;;;;;;6241696;28;20228;-68
2022/07/17 06:35:22;;;;;;;2.37;1.90;;;;;;;;;;6237955;28;20547;-67
2022/07/17 06:38:42;;;;;;;6.13;2.23;;;;;;;;;;6246217;28;20231;-68
2022/07/17 06:42:04;;;;;;;3.80;2.10;;;;;;;;;;6245551;28;20232;-68
2022/07/17 06:45:25;;;;;;;4.57;2.20;;;;;;;;;;6245039;28;20800;-67
2022/07/17 06:48:46;;;;;;;4.63;2.07;;;;;;;;;;6249178;28;20232;-68
2022/07/17 06:52:07;;;;;;;4.03;1.70;;;;;;;;;;6250118;28;20552;-67
2022/07/17 06:55:27;;;;;;;6.90;1.70;;;;;;;;;;6246845;28;20611;-68
2022/07/17 06:58:49;;;;;;;6.57;2.60;;;;;;;;;;6240545;28;20247;-67
2022/07/17 07:02:10;;;;;;;3.07;1.63;;;;;;;;;;6238945;28;20411;-69
2022/07/17 07:05:30;;;;;;;5.40;2.95;;;;;;;;;;6248290;28;20231;-68
2022/07/17 07:08:51;;;;;;;5.35;2.05;;;;;;;;;;6246172;28;20219;-67
2022/07/17 07:12:11;;;;;;;4.70;2.20;;;;;;;;;;6239854;28;20330;-68
2022/07/17 07:15:34;;;;;;;6.88;1.75;;;;;;;;;;6240999;28;20262;-68
2022/07/17 07:18:54;;;;;;;3.20;1.80;;;;;;;;;;6239024;28;20619;-67
2022/07/17 07:22:15;;;;;;;3.53;2.05;;;;;;;;;;6248545;28;20232;-67
2022/07/17 07:25:35;;;;;;;6.22;2.35;;;;;;;;;;6246100;28;20228;-67
2022/07/17 07:28:56;;;;;;;6.25;2.10;;;;;;;;;;6250919;28;20228;-67
2022/07/17 07:32:18;;;;;;;4.70;1.92;;;;;;;;;;6245328;28;20220;-68
2022/07/17 07:35:39;;;;;;;4.40;2.05;;;;;;;;;;6243221;28;20499;-67
2022/07/17 07:39:00;;;;;;;5.45;2.25;;;;;;;;;;6236269;28;20272;-66
2022/07/17 07:42:20;;;;;;;3.88;1.65;;;;;;;;;;6246753;28;20251;-67
2022/07/17 07:45:41;;;;;;;3.08;1.42;;;;;;;;;;6244719;28;20232;-67
2022/07/17 07:49:03;;;;;;;4.15;1.80;;;;;;;;;;6235033;28;20331;-67
2022/07/17 07:52:24;;;;;;;4.97;1.75;;;;;;;;;;6244442;28;20256;-67
2022/07/17 07:55:44;;;;;;;6.22;4.03;;;;;;;;;;6240650;28;20617;-67
2022/07/17 07:59:06;;;;;;;20.35;18.50;;;;;;;;;;6231366;28;20832;-68
2022/07/17 08:02:26;;;;;;;61.47;56.72;;;;;;;;;;6235029;28;20235;-68
2022/07/17 08:05:48;;;;;;;421.77;385.10;;;;;;;;;;6222218;28;20608;-68
2022/07/17 08:09:09;;;;;;;154.07;140.63;;;;;;;;;;6242191;28;20239;-66
2022/07/17 08:12:30;;;;;;;37.92;34.55;;;;;;;;;;6234582;28;20542;-66
2022/07/17 08:15:50;;;;;;;705.40;630.92;;;;;;;;;;6242727;28;22072;-64
2022/07/17 08:19:10;;;;;;;697.80;646.53;;;;;;;;;;6237266;28;20239;-69
2022/07/17 08:22:33;;;;;;;175.23;162.07;;;;;;;;;;6246201;28;20227;-67
2022/07/17 08:25:53;;;;;;;80.28;73.15;;;;;;;;;;6239614;28;20621;-68
2022/07/17 08:29:15;;;;;;;9.20;5.90;;;;;;;;;;6236521;28;20635;-68
2022/07/17 08:32:37;;;;;;;5.55;3.90;;;;;;;;;;6245109;28;20247;-68
2022/07/17 08:35:57;;;;;;;8.63;3.55;;;;;;;;;;6243038;28;20263;-68
2022/07/17 08:39:19;;;;;;;6.55;3.50;;;;;;;;;;6232728;28;20224;-68
2022/07/17 08:42:42;;;;;;;3.35;1.42;;;;;;;;;;6244614;28;20451;-69
2022/07/17 08:46:03;;;;;;;5.97;2.67;;;;;;;;;;6241009;28;20233;-68
2022/07/17 08:49:24;;;;;;;3.67;2.13;;;;;;;;;;6237115;28;20231;-69
2022/07/17 08:52:45;;;;;;;4.30;2.33;;;;;;;;;;6241107;28;21771;-68
2022/07/17 08:56:07;;;;;;;6.50;2.47;;;;;;;;;;6233220;28;20310;-68
2022/07/17 08:59:28;;;;;;;4.70;3.10;;;;;;;;;;6234942;28;20278;-68
2022/07/17 09:02:58;;;;;;;4.78;1.85;;;;;;;;;;6242773;28;20255;-70
2022/07/17 09:06:19;;;;;;;3.13;1.65;;;;;;;;;;6242155;28;20702;-71
2022/07/17 09:09:49;;;;;;;4.40;1.80;;;;;;;;;;6243275;28;20926;-71
2022/07/17 09:13:21;;;;;;;5.03;2.10;;;;;;;;;;6241901;28;20236;-71
2022/07/17 09:16:48;;;;;;;5.32;1.75;;;;;;;;;;6236103;28;20452;-71
2022/07/17 09:20:13;;;;;;;5.95;2.67;;;;;;;;;;6235509;28;20235;-72
2022/07/17 09:23:34;;;;;;;6.20;2.08;;;;;;;;;;6249490;28;20326;-72
2022/07/17 09:26:55;;;;;;;4.22;1.40;;;;;;;;;;6240842;28;20231;-70
2022/07/17 09:30:18;;;;;;;5.85;2.03;;;;;;;;;;6240432;28;20227;-72
2022/07/17 09:33:38;;;;;;;2.22;1.65;;;;;;;;;;6249002;28;20242;-72
2022/07/17 09:37:00;;;;;;;3.50;1.40;;;;;;;;;;6245544;28;20227;-72
2022/07/17 09:43:59;;;;;;;5.18;1.50;;;;;;;;;;6241266;28;20624;-71
2022/07/17 09:47:21;;;;;;;4.30;1.63;;;;;;;;;;6231133;28;20228;-71
2022/07/17 09:50:42;;;;;;;2.67;1.30;;;;;;;;;;6241824;28;20227;-73
2022/07/17 09:54:04;;;;;;;7.10;2.10;;;;;;;;;;6250038;28;20231;-71
2022/07/17 09:57:25;;;;;;;2.55;1.30;;;;;;;;;;6243091;28;20223;-71
2022/07/17 10:00:47;;;;;;;6.00;1.85;;;;;;;;;;6247844;28;20623;-72
2022/07/17 10:04:10;;;;;;;3.60;1.70;;;;;;;;;;6241965;28;20228;-70
2022/07/17 10:07:31;;;;;;;4.60;2.50;;;;;;;;;;6246280;28;20239;-72
2022/07/17 10:10:52;;;;;;;3.42;1.60;;;;;;;;;;6253356;28;20224;-71
2022/07/17 10:14:13;;;;;;;4.43;1.27;;;;;;;;;;6252438;28;20311;-71
2022/07/17 10:17:33;;;;;;;4.40;1.20;;;;;;;;;;6252779;28;20252;-70
2022/07/17 10:21:06;;;;;;;3.17;1.83;;;;;;;;;;6251370;28;20231;-71
2022/07/17 10:24:27;;;;;;;2.33;1.30;;;;;;;;;;6251863;28;20251;-72
2022/07/17 10:27:49;;;;;;;3.58;1.10;;;;;;;;;;6252095;28;20247;-71
2022/07/17 10:31:10;;;;;;;3.95;1.20;;;;;;;;;;6249768;28;20231;-71
2022/07/17 10:34:38;;;;;;;9.07;2.28;;;;;;;;;;6249948;28;20604;-71
2022/07/17 10:38:10;;;;;;;3.42;1.25;;;;;;;;;;6249260;28;20247;-71
2022/07/17 10:41:31;;;;;;;3.70;1.60;;;;;;;;;;6243203;28;20918;-70
2022/07/17 10:44:52;;;;;;;3.55;1.33;;;;;;;;;;6249602;28;20216;-71
2022/07/17 10:48:13;;;;;;;3.60;1.20;;;;;;;;;;6254460;28;20231;-72
2022/07/17 10:51:35;;;;;;;4.40;1.38;;;;;;;;;;6250238;28;20512;-72
2022/07/17 10:54:57;;;;;;;3.15;1.23;;;;;;;;;;6252975;28;20224;-72
2022/07/17 10:58:20;;;;;;;2.17;1.40;;;;;;;;;;6254495;28;20546;-74
2022/07/17 11:01:40;;;;;;;3.80;1.50;;;;;;;;;;6217747;28;20236;-70
2022/07/17 11:05:06;;;;;;;2.63;1.58;;;;;;;;;;6247546;28;20259;-70
2022/07/17 11:08:26;;;;;;;3.17;1.08;;;;;;;;;;6252375;28;20227;-70
2022/07/17 11:11:50;;;;;;;2.42;1.05;;;;;;;;;;6250719;28;20224;-69
2022/07/17 11:15:10;;;;;;;2.30;1.27;;;;;;;;;;6249659;28;20837;-70
2022/07/17 11:18:31;;;;;;;2.53;1.20;;;;;;;;;;6250688;28;20224;-70
2022/07/17 11:21:52;;;;;;;2.03;1.10;;;;;;;;;;6251057;28;20229;-69
2022/07/17 11:25:13;;;;;;;2.95;1.42;;;;;;;;;;6254139;28;20223;-70
2022/07/17 11:28:36;;;;;;;2.65;1.80;;;;;;;;;;6251424;28;20584;-71
2022/07/17 11:31:57;;;;;;;2.25;1.40;;;;;;;;;;6248916;28;20232;-69
2022/07/17 11:35:19;;;;;;;3.65;1.77;;;;;;;;;;6243312;28;20277;-70
2022/07/17 11:38:40;;;;;;;3.88;2.08;;;;;;;;;;6248681;28;20223;-71
2022/07/17 11:42:00;;;;;;;2.40;1.48;;;;;;;;;;6251914;28;20862;-70
2022/07/17 11:45:22;;;;;;;4.68;1.00;;;;;;;;;;6249465;28;20314;-71
2022/07/17 11:48:43;;;;;;;1.55;1.08;;;;;;;;;;6249361;28;20227;-71
2022/07/17 11:52:08;;;;;;;3.22;1.25;;;;;;;;;;6247192;28;20227;-70
2022/07/17 11:55:35;;;;;;;3.85;1.92;;;;;;;;;;6247246;28;20235;-70
2022/07/17 11:58:56;;;;;;;3.50;1.50;;;;;;;;;;6249651;28;20236;-71
2022/07/17 12:02:20;;;;;;;3.55;1.88;;;;;;;;;;6247918;28;20695;-70
2022/07/17 12:05:41;;;;;;;7.30;1.52;;;;;;;;;;6220711;28;20255;-71
2022/07/17 12:09:02;;;;;;;2.35;1.20;;;;;;;;;;6254122;28;20307;-69
2022/07/17 12:12:24;;;;;;;4.40;2.05;;;;;;;;;;6250019;28;20228;-69
2022/07/17 12:15:46;;;;;;;1.08;0.90;;;;;;;;;;6236637;28;20232;-71
2022/07/17 12:19:10;;;;;;;1.40;1.00;;;;;;;;;;6238760;28;20548;-69
2022/07/17 12:22:31;;;;;;;1.30;1.20;;;;;;;;;;6246827;28;20256;-72
2022/07/17 12:25:51;;;;;;;3.03;1.13;;;;;;;;;;6233937;28;20259;-72
2022/07/17 12:29:12;;;;;;;1.60;1.40;;;;;;;;;;6250026;28;20668;-72
2022/07/17 12:32:41;;;;;;;2.85;1.20;;;;;;;;;;6231404;28;20244;-71
2022/07/17 12:36:02;;;;;;;2.15;1.05;;;;;;;;;;6248807;28;20504;-70
2022/07/17 12:39:23;;;;;;;6.22;2.05;;;;;;;;;;6246742;28;20228;-72
2022/07/17 12:42:44;;;;;;;2.85;1.33;;;;;;;;;;6248068;28;20255;-72
2022/07/17 12:46:04;;;;;;;1.45;1.23;;;;;;;;;;6237284;28;20227;-71
2022/07/17 12:49:25;;;;;;;3.75;1.70;;;;;;;;;;6239148;28;20523;-71
2022/07/17 12:52:47;;;;;;;3.13;1.40;;;;;;;;;;6232918;28;20232;-70
2022/07/17 12:56:08;;;;;;;5.10;2.20;;;;;;;;;;6237769;28;20224;-73
2022/07/17 12:59:29;;;;;;;3.03;1.50;;;;;;;;;;6228010;28;20227;-69
2022/07/17 13:02:50;;;;;;;2.83;0.93;;;;;;;;;;6248372;28;20626;-71
2022/07/17 13:06:11;;;;;;;4.20;1.70;;;;;;;;;;6243453;28;20494;-70
2022/07/17 13:09:35;;;;;;;1.42;1.13;;;;;;;;;;6242981;28;20263;-72
2022/07/17 13:12:56;;;;;;;2.60;1.33;;;;;;;;;;6245153;28;20295;-73
2022/07/17 13:16:16;;;;;;;3.55;1.65;;;;;;;;;;6237041;28;20866;-72
2022/07/17 13:19:37;;;;;;;2.72;1.55;;;;;;;;;;6245866;28;20321;-71
2022/07/17 13:22:57;;;;;;;1.27;0.80;;;;;;;;;;6248386;28;20228;-72
2022/07/17 13:26:19;;;;;;;2.05;1.42;;;;;;;;;;6248118;28;20255;-72
2022/07/17 13:29:40;;;;;;;1.60;1.42;;;;;;;;;;6245097;28;20322;-69
2022/07/17 13:33:01;;;;;;;1.38;1.00;;;;;;;;;;6250618;28;20422;-70
2022/07/17 13:36:21;;;;;;;2.47;1.10;;;;;;;;;;6248973;28;20469;-70
2022/07/17 13:39:42;;;;;;;1.13;0.88;;;;;;;;;;6249439;28;20228;-70
2022/07/17 13:43:05;;;;;;;1.30;0.80;;;;;;;;;;6249411;28;20585;-71
2022/07/17 13:46:25;;;;;;;2.65;1.10;;;;;;;;;;6254438;28;20585;-71
2022/07/17 13:49:46;;;;;;;1.08;0.85;;;;;;;;;;6249410;28;20879;-71
2022/07/17 13:53:07;;;;;;;3.53;1.65;;;;;;;;;;6252473;28;20302;-71
2022/07/17 13:56:27;;;;;;;2.13;0.88;;;;;;;;;;6255596;28;21454;-71
2022/07/17 13:59:49;;;;;;;1.80;1.05;;;;;;;;;;6252269;28;20585;-70
2022/07/17 14:03:10;;;;;;;2.65;1.30;;;;;;;;;;6255548;28;20239;-71
2022/07/17 14:06:31;;;;;;;1.73;0.93;;;;;;;;;;6256189;28;20235;-72
2022/07/17 14:09:51;;;;;;;1.33;1.23;;;;;;;;;;6254306;28;20232;-72
2022/07/17 14:13:12;;;;;;;2.30;1.40;;;;;;;;;;6254538;28;20523;-72
2022/07/17 14:16:34;;;;;;;1.60;1.13;;;;;;;;;;6253147;28;20569;-71
2022/07/17 14:19:54;;;;;;;2.05;1.35;;;;;;;;;;6251289;28;20551;-70
2022/07/17 14:23:17;;;;;;;3.38;2.47;;;;;;;;;;6252227;28;20597;-71
2022/07/17 14:26:37;;;;;;;2.13;1.10;;;;;;;;;;6256603;28;20228;-71
2022/07/17 14:29:58;;;;;;;1.58;0.82;;;;;;;;;;6243166;28;20231;-72
2022/07/17 14:33:20;;;;;;;2.78;1.80;;;;;;;;;;6249494;28;20282;-71
2022/07/17 14:36:41;;;;;;;4.97;1.40;;;;;;;;;;6247348;28;20228;-72
2022/07/17 14:40:02;;;;;;;2.03;1.10;;;;;;;;;;6248559;28;20236;-72
2022/07/17 14:43:22;;;;;;;3.72;1.45;;;;;;;;;;6254659;28;20511;-71
2022/07/17 14:46:43;;;;;;;2.58;1.70;;;;;;;;;;6246675;28;20235;-72
2022/07/17 14:50:05;;;;;;;1.77;1.15;;;;;;;;;;6255284;28;20228;-72
2022/07/17 14:53:25;;;;;;;3.20;1.40;;;;;;;;;;6235836;28;20231;-73
2022/07/17 14:56:46;;;;;;;3.25;2.33;;;;;;;;;;6249677;28;20690;-73
2022/07/17 15:00:07;;;;;;;2.88;1.33;;;;;;;;;;6250255;28;20228;-71
2022/07/17 15:03:28;;;;;;;2.78;1.90;;;;;;;;;;6250349;28;20244;-73
2022/07/17 15:06:50;;;;;;;4.15;2.38;;;;;;;;;;6252423;28;20239;-73
2022/07/17 15:10:10;;;;;;;2.03;1.40;;;;;;;;;;6246189;28;20231;-73
2022/07/17 15:13:31;;;;;;;3.38;2.35;;;;;;;;;;6253779;28;20236;-73
2022/07/17 15:16:51;;;;;;;3.08;1.92;;;;;;;;;;6251158;28;20239;-71
2022/07/17 15:20:12;;;;;;;2.15;1.80;;;;;;;;;;6253391;28;20299;-72
2022/07/17 15:23:36;;;;;;;5.28;4.22;;;;;;;;;;6255373;28;20236;-73
2022/07/17 15:26:56;;;;;;;4.72;3.15;;;;;;;;;;6238376;28;20219;-72
2022/07/17 15:30:17;;;;;;;4.50;2.42;;;;;;;;;;6254032;28;21039;-72
2022/07/17 15:33:41;;;;;;;3.65;2.60;;;;;;;;;;6252013;28;20231;-72
2022/07/17 15:37:02;;;;;;;3.17;2.55;;;;;;;;;;6249703;28;20496;-72
2022/07/17 15:40:25;;;;;;;2.35;2.10;;;;;;;;;;6248316;28;20310;-72
2022/07/17 15:43:45;;;;;;;2.35;1.80;;;;;;;;;;6247314;28;20395;-72
2022/07/17 15:47:05;;;;;;;2.40;2.20;;;;;;;;;;6251461;28;20251;-73
2022/07/17 15:50:26;;;;;;;1.83;1.73;;;;;;;;;;6255822;28;20852;-72
2022/07/17 15:53:47;;;;;;;2.85;2.13;;;;;;;;;;6251231;28;20660;-72
2022/07/17 15:57:08;;;;;;;2.33;1.95;;;;;;;;;;6248571;28;20223;-73
2022/07/17 16:00:29;;;;;;;3.55;2.15;;;;;;;;;;6249107;28;20228;-72
2022/07/17 16:03:50;;;;;;;4.65;4.32;;;;;;;;;;6247295;28;20232;-72
2022/07/17 16:07:10;;;;;;;3.00;2.10;;;;;;;;;;6243420;28;20236;-72
2022/07/17 16:10:31;;;;;;;2.10;1.83;;;;;;;;;;6244854;28;20223;-70
2022/07/17 16:13:53;;;;;;;4.78;2.25;;;;;;;;;;6248828;28;20604;-72
2022/07/17 16:17:13;;;;;;;2.65;2.33;;;;;;;;;;6238407;28;20228;-72
2022/07/17 16:20:34;;;;;;;2.10;1.90;;;;;;;;;;6249353;28;20224;-70
2022/07/17 16:23:54;;;;;;;2.30;1.75;;;;;;;;;;6250178;28;20227;-71
2022/07/17 16:27:15;;;;;;;2.05;1.77;;;;;;;;;;6245089;28;20890;-71
2022/07/17 16:30:37;;;;;;;3.90;3.58;;;;;;;;;;6252629;28;20256;-72
2022/07/17 16:33:57;;;;;;;3.45;1.90;;;;;;;;;;6239372;28;20316;-73
2022/07/17 16:37:18;;;;;;;2.30;2.10;;;;;;;;;;6243505;28;20239;-71
2022/07/17 16:40:38;;;;;;;2.25;2.05;;;;;;;;;;6249060;28;20223;-69
2022/07/17 16:43:59;;;;;;;4.20;3.42;;;;;;;;;;6248345;28;20325;-70
2022/07/17 16:47:21;;;;;;;46.67;43.50;;;;;;;;;;6234934;28;20236;-68
2022/07/17 16:50:43;;;;;;;558.10;514.05;;;;;;;;;;6246765;28;20224;-69
2022/07/17 16:54:04;;;;;;;1372.90;984.03;;;;;;;;;;6249527;28;20317;-73
2022/07/17 16:57:25;;;;;;;1138.22;999.90;;;;;;;;;;6242701;28;20232;-73
2022/07/17 17:00:45;;;;;;;418.58;378.05;;;;;;;;;;6245701;28;20557;-71
2022/07/17 17:04:07;;;;;;;15.63;14.15;;;;;;;;;;6243790;28;20239;-70
2022/07/17 17:07:28;;;;;;;3.78;2.83;;;;;;;;;;6244734;28;20227;-69
2022/07/17 17:10:48;;;;;;;5.15;3.63;;;;;;;;;;6248610;28;20224;-69
2022/07/17 17:14:09;;;;;;;3.33;2.70;;;;;;;;;;6251857;28;20328;-71
2022/07/17 17:17:30;;;;;;;3.05;2.75;;;;;;;;;;6246621;28;20244;-71
2022/07/17 17:20:52;;;;;;;4.18;3.53;;;;;;;;;;6249449;28;20236;-70
2022/07/17 17:24:12;;;;;;;3.25;3.00;;;;;;;;;;6250525;28;20247;-70
2022/07/17 17:27:33;;;;;;;2.35;2.05;;;;;;;;;;6247630;28;20863;-70
2022/07/17 17:30:53;;;;;;;2.53;1.88;;;;;;;;;;6251189;28;20223;-69
2022/07/17 17:34:14;;;;;;;2.88;2.58;;;;;;;;;;6250654;28;20260;-69
2022/07/17 17:37:36;;;;;;;3.63;2.15;;;;;;;;;;6253536;28;20235;-70
2022/07/17 17:40:56;;;;;;;2.15;2.05;;;;;;;;;;6250425;28;20224;-69
2022/07/17 17:44:17;;;;;;;7.15;6.55;;;;;;;;;;6248403;28;20278;-71
2022/07/17 17:47:37;;;;;;;3.45;3.00;;;;;;;;;;6237194;28;20232;-70
2022/07/17 17:50:58;;;;;;;3.20;2.90;;;;;;;;;;6248600;28;20231;-71
2022/07/17 17:54:20;;;;;;;3.55;2.92;;;;;;;;;;6228819;28;20228;-66
2022/07/17 17:57:41;;;;;;;2.42;2.22;;;;;;;;;;6249489;28;20600;-66
2022/07/17 18:01:01;;;;;;;2.90;2.45;;;;;;;;;;6245886;28;20223;-66
2022/07/17 18:04:22;;;;;;;2.30;2.05;;;;;;;;;;6246020;28;20363;-68
2022/07/17 18:07:42;;;;;;;2.58;2.38;;;;;;;;;;6248266;28;20338;-67
2022/07/17 18:11:04;;;;;;;3.60;1.98;;;;;;;;;;6248558;28;20236;-66
2022/07/17 18:14:25;;;;;;;2.47;2.05;;;;;;;;;;6247659;28;20228;-67
2022/07/17 18:17:47;;;;;;;1.75;1.55;;;;;;;;;;6247876;28;20220;-67
2022/07/17 18:21:07;;;;;;;3.80;2.22;;;;;;;;;;6250934;28;20232;-66
2022/07/17 18:24:28;;;;;;;2.58;2.15;;;;;;;;;;6235722;28;21022;-66
2022/07/17 18:27:50;;;;;;;2.90;2.40;;;;;;;;;;6243717;28;20224;-66
2022/07/17 18:31:11;;;;;;;2.45;2.22;;;;;;;;;;6247268;28;20343;-67
2022/07/17 18:34:31;;;;;;;4.13;2.75;;;;;;;;;;6254781;28;20223;-67
2022/07/17 18:37:53;;;;;;;2.33;2.13;;;;;;;;;;6255142;28;20230;-67
2022/07/17 18:41:14;;;;;;;3.60;2.53;;;;;;;;;;6257626;28;20232;-67
2022/07/17 18:44:37;;;;;;;3.28;1.98;;;;;;;;;;6250843;28;20251;-67
2022/07/17 18:47:59;;;;;;;2.35;2.15;;;;;;;;;;6255014;28;20250;-67
2022/07/17 18:51:20;;;;;;;2.60;2.10;;;;;;;;;;6249901;28;20616;-67
2022/07/17 18:54:41;;;;;;;3.35;2.33;;;;;;;;;;6247430;28;20231;-67
2022/07/17 18:58:01;;;;;;;3.75;1.98;;;;;;;;;;6252332;28;20232;-66
2022/07/17 19:01:23;;;;;;;3.22;2.30;;;;;;;;;;6248177;28;20489;-67
2022/07/17 19:04:44;;;;;;;2.10;1.98;;;;;;;;;;6252186;28;20232;-67
2022/07/17 19:08:05;;;;;;;2.55;1.73;;;;;;;;;;6252447;28;20608;-67
2022/07/17 19:11:26;;;;;;;5.25;3.67;;;;;;;;;;6253325;28;20228;-67
2022/07/17 19:14:46;;;;;;;3.75;2.40;;;;;;;;;;6253808;28;20251;-67
2022/07/17 19:18:09;;;;;;;2.72;1.60;;;;;;;;;;6254614;28;20639;-67
2022/07/17 19:21:29;;;;;;;3.92;2.53;;;;;;;;;;6252190;28;20228;-67
2022/07/17 19:24:50;;;;;;;2.85;1.63;;;;;;;;;;6251650;28;20228;-67
2022/07/17 19:28:11;;;;;;;4.10;1.80;;;;;;;;;;6248653;28;20235;-65
2022/07/17 19:31:32;;;;;;;2.50;2.17;;;;;;;;;;6248218;28;20254;-66
2022/07/17 19:34:54;;;;;;;1.52;1.38;;;;;;;;;;6248000;28;20231;-66
2022/07/17 19:38:15;;;;;;;2.10;1.70;;;;;;;;;;6254943;28;20477;-72
2022/07/17 19:41:38;;;;;;;2.55;1.70;;;;;;;;;;6252551;28;20219;-72
2022/07/17 19:44:59;;;;;;;2.55;1.70;;;;;;;;;;6238861;28;20232;-72
2022/07/17 19:48:19;;;;;;;2.63;1.83;;;;;;;;;;6247024;28;20220;-73
2022/07/17 19:51:41;;;;;;;2.33;2.08;;;;;;;;;;6242907;28;20531;-73
2022/07/17 19:55:01;;;;;;;2.90;1.80;;;;;;;;;;6249180;28;20223;-72
2022/07/17 19:58:22;;;;;;;2.78;2.35;;;;;;;;;;6242975;28;20232;-70
2022/07/17 20:01:43;;;;;;;2.03;1.58;;;;;;;;;;6242799;28;20236;-72
2022/07/17 20:05:04;;;;;;;2.28;1.67;;;;;;;;;;6252207;28;20236;-72